sensor_id;sensor_type;location;lat;lon;timestamp;P1;durP1;ratioP1;P2;durP2;ratioP2
15528;SDS011;7866;52.280;9.500;2023-06-22T00:01:34;4.88;;;4.57;;
15528;SDS011;7866;52.280;9.500;2023-06-22T00:06:36;5.35;;;4.95;;
15528;SDS011;7866;52.280;9.500;2023-06-22T00:11:37;5.18;;;4.78;;
15528;SDS011;7866;52.280;9.500;2023-06-22T00:16:41;4.90;;;4.50;;
15528;SDS011;7866;52.280;9.500;2023-06-22T00:21:42;5.20;;;4.80;;
15528;SDS011;7866;52.280;9.500;2023-06-22T00:26:47;4.50;;;4.20;;
15528;SDS011;7866;52.280;9.500;2023-06-22T00:31:50;5.07;;;4.68;;
15528;SDS011;7866;52.280;9.500;2023-06-22T00:36:52;5.35;;;4.93;;
15528;SDS011;7866;52.280;9.500;2023-06-22T00:41:54;4.53;;;4.15;;
15528;SDS011;7866;52.280;9.500;2023-06-22T00:46:57;5.55;;;5.05;;
15528;SDS011;7866;52.280;9.500;2023-06-22T00:52:00;4.93;;;4.45;;
15528;SDS011;7866;52.280;9.500;2023-06-22T00:57:02;4.93;;;4.57;;
15528;SDS011;7866;52.280;9.500;2023-06-22T01:02:05;4.95;;;4.57;;
15528;SDS011;7866;52.280;9.500;2023-06-22T01:07:10;5.00;;;4.70;;
15528;SDS011;7866;52.280;9.500;2023-06-22T01:12:20;5.50;;;5.00;;
15528;SDS011;7866;52.280;9.500;2023-06-22T01:17:24;5.45;;;5.05;;
15528;SDS011;7866;52.280;9.500;2023-06-22T01:22:28;5.00;;;4.60;;
15528;SDS011;7866;52.280;9.500;2023-06-22T01:27:36;5.32;;;4.78;;
15528;SDS011;7866;52.280;9.500;2023-06-22T01:32:49;5.70;;;5.22;;
15528;SDS011;7866;52.280;9.500;2023-06-22T01:37:52;5.15;;;4.78;;
15528;SDS011;7866;52.280;9.500;2023-06-22T01:42:54;5.07;;;4.68;;
15528;SDS011;7866;52.280;9.500;2023-06-22T01:47:58;5.30;;;4.90;;
15528;SDS011;7866;52.280;9.500;2023-06-22T01:53:00;5.55;;;5.15;;
15528;SDS011;7866;52.280;9.500;2023-06-22T01:58:02;5.47;;;4.97;;
15528;SDS011;7866;52.280;9.500;2023-06-22T02:03:08;5.50;;;5.00;;
15528;SDS011;7866;52.280;9.500;2023-06-22T02:08:13;5.40;;;5.00;;
15528;SDS011;7866;52.280;9.500;2023-06-22T02:13:18;5.72;;;5.30;;
15528;SDS011;7866;52.280;9.500;2023-06-22T02:18:22;5.80;;;5.28;;
15528;SDS011;7866;52.280;9.500;2023-06-22T02:23:24;6.13;;;5.53;;
15528;SDS011;7866;52.280;9.500;2023-06-22T02:28:25;5.95;;;5.50;;
15528;SDS011;7866;52.280;9.500;2023-06-22T02:33:28;5.95;;;5.43;;
15528;SDS011;7866;52.280;9.500;2023-06-22T02:38:30;6.00;;;5.50;;
15528;SDS011;7866;52.280;9.500;2023-06-22T02:43:34;6.32;;;5.82;;
15528;SDS011;7866;52.280;9.500;2023-06-22T02:48:37;6.70;;;6.20;;
15528;SDS011;7866;52.280;9.500;2023-06-22T02:53:39;7.60;;;6.93;;
15528;SDS011;7866;52.280;9.500;2023-06-22T02:58:44;6.40;;;5.90;;
15528;SDS011;7866;52.280;9.500;2023-06-22T03:03:47;6.90;;;6.40;;
15528;SDS011;7866;52.280;9.500;2023-06-22T03:08:50;7.00;;;6.50;;
15528;SDS011;7866;52.280;9.500;2023-06-22T03:13:52;6.80;;;6.30;;
15528;SDS011;7866;52.280;9.500;2023-06-22T03:18:55;7.43;;;6.82;;
15528;SDS011;7866;52.280;9.500;2023-06-22T03:23:56;7.57;;;6.97;;
15528;SDS011;7866;52.280;9.500;2023-06-22T03:28:58;7.13;;;6.53;;
15528;SDS011;7866;52.280;9.500;2023-06-22T03:34:01;7.45;;;6.85;;
15528;SDS011;7866;52.280;9.500;2023-06-22T03:39:03;7.88;;;7.28;;
15528;SDS011;7866;52.280;9.500;2023-06-22T03:44:04;8.07;;;7.38;;
15528;SDS011;7866;52.280;9.500;2023-06-22T03:49:07;7.90;;;7.28;;
15528;SDS011;7866;52.280;9.500;2023-06-22T03:54:09;7.85;;;7.13;;
15528;SDS011;7866;52.280;9.500;2023-06-22T03:59:10;7.97;;;7.28;;
15528;SDS011;7866;52.280;9.500;2023-06-22T04:04:13;7.88;;;7.28;;
15528;SDS011;7866;52.280;9.500;2023-06-22T04:09:15;8.50;;;7.75;;
15528;SDS011;7866;52.280;9.500;2023-06-22T04:14:17;9.02;;;7.63;;
15528;SDS011;7866;52.280;9.500;2023-06-22T04:19:20;8.43;;;7.82;;
15528;SDS011;7866;52.280;9.500;2023-06-22T04:24:22;8.55;;;7.85;;
15528;SDS011;7866;52.280;9.500;2023-06-22T04:29:24;8.93;;;8.10;;
15528;SDS011;7866;52.280;9.500;2023-06-22T04:34:30;8.32;;;7.72;;
15528;SDS011;7866;52.280;9.500;2023-06-22T04:39:32;8.40;;;7.68;;
15528;SDS011;7866;52.280;9.500;2023-06-22T04:44:33;8.43;;;7.82;;
15528;SDS011;7866;52.280;9.500;2023-06-22T04:49:36;9.25;;;8.52;;
15528;SDS011;7866;52.280;9.500;2023-06-22T04:54:40;8.90;;;8.23;;
15528;SDS011;7866;52.280;9.500;2023-06-22T04:59:47;11.60;;;10.55;;
15528;SDS011;7866;52.280;9.500;2023-06-22T05:04:50;11.45;;;10.40;;
15528;SDS011;7866;52.280;9.500;2023-06-22T05:09:52;10.98;;;9.98;;
15528;SDS011;7866;52.280;9.500;2023-06-22T05:14:54;11.15;;;10.15;;
15528;SDS011;7866;52.280;9.500;2023-06-22T05:19:57;11.07;;;10.07;;
15528;SDS011;7866;52.280;9.500;2023-06-22T05:24:58;11.48;;;10.48;;
15528;SDS011;7866;52.280;9.500;2023-06-22T05:30:00;11.73;;;10.82;;
15528;SDS011;7866;52.280;9.500;2023-06-22T05:35:03;11.52;;;10.63;;
15528;SDS011;7866;52.280;9.500;2023-06-22T05:40:06;12.45;;;11.35;;
15528;SDS011;7866;52.280;9.500;2023-06-22T05:45:09;11.43;;;10.43;;
15528;SDS011;7866;52.280;9.500;2023-06-22T05:50:12;11.52;;;10.52;;
15528;SDS011;7866;52.280;9.500;2023-06-22T05:55:14;13.18;;;11.85;;
15528;SDS011;7866;52.280;9.500;2023-06-22T06:00:19;13.38;;;12.27;;
15528;SDS011;7866;52.280;9.500;2023-06-22T06:05:23;12.90;;;11.80;;
15528;SDS011;7866;52.280;9.500;2023-06-22T06:10:25;14.23;;;13.02;;
15528;SDS011;7866;52.280;9.500;2023-06-22T06:15:27;12.38;;;11.20;;
15528;SDS011;7866;52.280;9.500;2023-06-22T06:20:31;13.10;;;11.88;;
15528;SDS011;7866;52.280;9.500;2023-06-22T06:25:33;13.05;;;11.85;;
15528;SDS011;7866;52.280;9.500;2023-06-22T06:30:34;13.13;;;11.85;;
15528;SDS011;7866;52.280;9.500;2023-06-22T06:35:38;11.80;;;10.60;;
15528;SDS011;7866;52.280;9.500;2023-06-22T06:40:40;14.00;;;12.60;;
15528;SDS011;7866;52.280;9.500;2023-06-22T06:45:41;12.20;;;11.10;;
15528;SDS011;7866;52.280;9.500;2023-06-22T06:50:44;11.75;;;10.77;;
15528;SDS011;7866;52.280;9.500;2023-06-22T06:55:46;11.95;;;10.98;;
15528;SDS011;7866;52.280;9.500;2023-06-22T07:00:48;11.35;;;10.35;;
15528;SDS011;7866;52.280;9.500;2023-06-22T07:05:51;9.77;;;8.88;;
15528;SDS011;7866;52.280;9.500;2023-06-22T07:10:55;9.88;;;9.07;;
15528;SDS011;7866;52.280;9.500;2023-06-22T07:15:56;9.15;;;8.32;;
15528;SDS011;7866;52.280;9.500;2023-06-22T07:21:00;10.85;;;9.85;;
15528;SDS011;7866;52.280;9.500;2023-06-22T07:26:03;12.57;;;10.77;;
15528;SDS011;7866;52.280;9.500;2023-06-22T07:31:06;11.10;;;10.20;;
15528;SDS011;7866;52.280;9.500;2023-06-22T07:36:09;10.65;;;9.70;;
15528;SDS011;7866;52.280;9.500;2023-06-22T07:41:11;9.07;;;8.32;;
15528;SDS011;7866;52.280;9.500;2023-06-22T07:46:12;9.43;;;8.52;;
15528;SDS011;7866;52.280;9.500;2023-06-22T07:51:16;9.25;;;8.35;;
15528;SDS011;7866;52.280;9.500;2023-06-22T07:56:17;8.82;;;8.02;;
15528;SDS011;7866;52.280;9.500;2023-06-22T08:01:20;8.82;;;8.02;;
15528;SDS011;7866;52.280;9.500;2023-06-22T08:06:23;8.52;;;7.57;;
15528;SDS011;7866;52.280;9.500;2023-06-22T08:11:25;9.52;;;7.82;;
15528;SDS011;7866;52.280;9.500;2023-06-22T08:16:26;7.97;;;7.05;;
15528;SDS011;7866;52.280;9.500;2023-06-22T08:21:29;8.48;;;7.78;;
15528;SDS011;7866;52.280;9.500;2023-06-22T08:26:31;9.07;;;8.23;;
15528;SDS011;7866;52.280;9.500;2023-06-22T08:31:36;7.57;;;6.88;;
15528;SDS011;7866;52.280;9.500;2023-06-22T08:36:39;7.43;;;6.82;;
15528;SDS011;7866;52.280;9.500;2023-06-22T08:41:44;7.80;;;7.20;;
15528;SDS011;7866;52.280;9.500;2023-06-22T08:46:46;7.68;;;6.97;;
15528;SDS011;7866;52.280;9.500;2023-06-22T08:51:49;8.60;;;7.65;;
15528;SDS011;7866;52.280;9.500;2023-06-22T08:56:53;8.55;;;7.70;;
15528;SDS011;7866;52.280;9.500;2023-06-22T09:01:55;7.93;;;7.13;;
15528;SDS011;7866;52.280;9.500;2023-06-22T09:06:58;8.95;;;8.10;;
15528;SDS011;7866;52.280;9.500;2023-06-22T09:11:59;10.32;;;8.90;;
15528;SDS011;7866;52.280;9.500;2023-06-22T09:17:01;9.57;;;8.60;;
15528;SDS011;7866;52.280;9.500;2023-06-22T09:22:05;8.60;;;7.88;;
15528;SDS011;7866;52.280;9.500;2023-06-22T09:27:07;9.20;;;8.40;;
15528;SDS011;7866;52.280;9.500;2023-06-22T09:32:08;9.20;;;8.27;;
15528;SDS011;7866;52.280;9.500;2023-06-22T09:37:11;9.48;;;8.48;;
15528;SDS011;7866;52.280;9.500;2023-06-22T09:42:13;9.10;;;8.10;;
15528;SDS011;7866;52.280;9.500;2023-06-22T09:47:15;13.38;;;8.10;;
15528;SDS011;7866;52.280;9.500;2023-06-22T09:52:18;8.48;;;7.30;;
15528;SDS011;7866;52.280;9.500;2023-06-22T09:57:19;8.48;;;7.60;;
15528;SDS011;7866;52.280;9.500;2023-06-22T10:02:21;9.70;;;8.82;;
15528;SDS011;7866;52.280;9.500;2023-06-22T10:07:24;9.52;;;8.50;;
15528;SDS011;7866;52.280;9.500;2023-06-22T10:12:27;9.45;;;8.52;;
15528;SDS011;7866;52.280;9.500;2023-06-22T10:17:28;9.13;;;8.32;;
15528;SDS011;7866;52.280;9.500;2023-06-22T10:22:31;8.50;;;7.63;;
15528;SDS011;7866;52.280;9.500;2023-06-22T10:27:33;8.30;;;7.57;;
15528;SDS011;7866;52.280;9.500;2023-06-22T10:32:35;8.45;;;7.65;;
15528;SDS011;7866;52.280;9.500;2023-06-22T10:37:40;8.82;;;7.97;;
15528;SDS011;7866;52.280;9.500;2023-06-22T10:42:43;14.68;;;8.57;;
15528;SDS011;7866;52.280;9.500;2023-06-22T10:47:44;8.77;;;7.88;;
15528;SDS011;7866;52.280;9.500;2023-06-22T10:52:47;8.65;;;7.85;;
15528;SDS011;7866;52.280;9.500;2023-06-22T10:57:49;8.32;;;7.60;;
15528;SDS011;7866;52.280;9.500;2023-06-22T11:02:52;9.10;;;8.05;;
15528;SDS011;7866;52.280;9.500;2023-06-22T11:07:55;11.57;;;9.38;;
15528;SDS011;7866;52.280;9.500;2023-06-22T11:12:57;11.45;;;10.40;;
15528;SDS011;7866;52.280;9.500;2023-06-22T11:17:58;10.15;;;9.00;;
15528;SDS011;7866;52.280;9.500;2023-06-22T11:23:01;10.77;;;8.68;;
15528;SDS011;7866;52.280;9.500;2023-06-22T11:28:03;10.68;;;9.70;;
15528;SDS011;7866;52.280;9.500;2023-06-22T11:33:05;10.60;;;9.57;;
15528;SDS011;7866;52.280;9.500;2023-06-22T11:38:08;18.70;;;11.57;;
15528;SDS011;7866;52.280;9.500;2023-06-22T11:43:10;10.90;;;9.90;;
15528;SDS011;7866;52.280;9.500;2023-06-22T11:48:11;11.48;;;10.48;;
15528;SDS011;7866;52.280;9.500;2023-06-22T11:53:14;11.18;;;10.10;;
15528;SDS011;7866;52.280;9.500;2023-06-22T11:58:17;12.07;;;10.98;;
15528;SDS011;7866;52.280;9.500;2023-06-22T12:03:19;12.60;;;11.55;;
15528;SDS011;7866;52.280;9.500;2023-06-22T12:08:23;10.75;;;9.75;;
15528;SDS011;7866;52.280;9.500;2023-06-22T12:13:24;11.02;;;10.02;;
15528;SDS011;7866;52.280;9.500;2023-06-22T12:18:26;11.82;;;10.73;;
15528;SDS011;7866;52.280;9.500;2023-06-22T12:23:29;15.15;;;11.27;;
15528;SDS011;7866;52.280;9.500;2023-06-22T12:28:31;11.55;;;10.30;;
15528;SDS011;7866;52.280;9.500;2023-06-22T12:33:32;11.98;;;10.90;;
15528;SDS011;7866;52.280;9.500;2023-06-22T12:38:35;11.90;;;10.77;;
15528;SDS011;7866;52.280;9.500;2023-06-22T12:43:37;10.20;;;9.40;;
15528;SDS011;7866;52.280;9.500;2023-06-22T12:48:38;10.27;;;9.23;;
15528;SDS011;7866;52.280;9.500;2023-06-22T12:53:43;9.95;;;9.15;;
15528;SDS011;7866;52.280;9.500;2023-06-22T12:58:45;9.65;;;8.77;;
15528;SDS011;7866;52.280;9.500;2023-06-22T13:03:46;9.30;;;8.40;;
15528;SDS011;7866;52.280;9.500;2023-06-22T13:08:49;9.65;;;8.90;;
15528;SDS011;7866;52.280;9.500;2023-06-22T13:13:51;8.73;;;7.90;;
15528;SDS011;7866;52.280;9.500;2023-06-22T13:18:53;9.50;;;8.70;;
15528;SDS011;7866;52.280;9.500;2023-06-22T13:23:56;9.35;;;8.55;;
15528;SDS011;7866;52.280;9.500;2023-06-22T13:28:57;9.00;;;8.10;;
15528;SDS011;7866;52.280;9.500;2023-06-22T13:33:59;8.57;;;7.88;;
15528;SDS011;7866;52.280;9.500;2023-06-22T13:39:02;8.75;;;8.02;;
15528;SDS011;7866;52.280;9.500;2023-06-22T13:44:04;8.90;;;8.02;;
15528;SDS011;7866;52.280;9.500;2023-06-22T13:49:06;7.90;;;7.30;;
15528;SDS011;7866;52.280;9.500;2023-06-22T13:54:09;8.00;;;7.40;;
15528;SDS011;7866;52.280;9.500;2023-06-22T13:59:10;9.35;;;8.43;;
15528;SDS011;7866;52.280;9.500;2023-06-22T14:04:12;9.90;;;9.10;;
15528;SDS011;7866;52.280;9.500;2023-06-22T14:09:15;9.80;;;8.45;;
15528;SDS011;7866;52.280;9.500;2023-06-22T14:14:17;9.25;;;8.48;;
15528;SDS011;7866;52.280;9.500;2023-06-22T14:19:18;9.25;;;8.48;;
15528;SDS011;7866;52.280;9.500;2023-06-22T14:24:21;9.35;;;8.50;;
15528;SDS011;7866;52.280;9.500;2023-06-22T14:29:23;10.43;;;9.60;;
15528;SDS011;7866;52.280;9.500;2023-06-22T14:34:24;9.68;;;8.95;;
15528;SDS011;7866;52.280;9.500;2023-06-22T14:39:27;10.50;;;9.60;;
15528;SDS011;7866;52.280;9.500;2023-06-22T14:44:29;10.63;;;9.63;;
15528;SDS011;7866;52.280;9.500;2023-06-22T14:49:31;10.57;;;9.70;;
15528;SDS011;7866;52.280;9.500;2023-06-22T14:54:34;10.30;;;9.40;;
15528;SDS011;7866;52.280;9.500;2023-06-22T14:59:35;10.73;;;9.82;;
15528;SDS011;7866;52.280;9.500;2023-06-22T15:04:37;10.82;;;9.85;;
15528;SDS011;7866;52.280;9.500;2023-06-22T15:09:40;10.57;;;9.57;;
15528;SDS011;7866;52.280;9.500;2023-06-22T15:14:42;11.00;;;10.00;;
15528;SDS011;7866;52.280;9.500;2023-06-22T15:19:44;12.43;;;11.13;;
15528;SDS011;7866;52.280;9.500;2023-06-22T15:24:47;12.45;;;11.15;;
15528;SDS011;7866;52.280;9.500;2023-06-22T15:29:49;13.02;;;11.77;;
15528;SDS011;7866;52.280;9.500;2023-06-22T15:34:51;12.93;;;10.90;;
15528;SDS011;7866;52.280;9.500;2023-06-22T15:39:55;11.80;;;10.70;;
15528;SDS011;7866;52.280;9.500;2023-06-22T15:44:58;12.10;;;10.82;;
15528;SDS011;7866;52.280;9.500;2023-06-22T15:50:00;14.40;;;13.00;;
15528;SDS011;7866;52.280;9.500;2023-06-22T15:55:03;13.80;;;12.60;;
15528;SDS011;7866;52.280;9.500;2023-06-22T16:00:07;13.18;;;11.88;;
15528;SDS011;7866;52.280;9.500;2023-06-22T16:05:14;12.32;;;11.23;;
15528;SDS011;7866;52.280;9.500;2023-06-22T16:10:17;12.52;;;11.43;;
15528;SDS011;7866;52.280;9.500;2023-06-22T16:15:19;13.95;;;12.70;;
15528;SDS011;7866;52.280;9.500;2023-06-22T16:20:21;12.57;;;11.57;;
15528;SDS011;7866;52.280;9.500;2023-06-22T16:25:24;13.68;;;12.43;;
15528;SDS011;7866;52.280;9.500;2023-06-22T16:30:26;14.60;;;13.38;;
15528;SDS011;7866;52.280;9.500;2023-06-22T16:35:28;13.57;;;12.27;;
15528;SDS011;7866;52.280;9.500;2023-06-22T16:40:34;13.20;;;12.05;;
15528;SDS011;7866;52.280;9.500;2023-06-22T16:45:35;13.20;;;12.00;;
15528;SDS011;7866;52.280;9.500;2023-06-22T16:50:37;12.23;;;10.65;;
15528;SDS011;7866;52.280;9.500;2023-06-22T16:55:40;12.77;;;11.60;;
15528;SDS011;7866;52.280;9.500;2023-06-22T17:00:44;11.50;;;10.40;;
15528;SDS011;7866;52.280;9.500;2023-06-22T17:05:46;12.80;;;11.40;;
15528;SDS011;7866;52.280;9.500;2023-06-22T17:10:49;11.38;;;10.40;;
15528;SDS011;7866;52.280;9.500;2023-06-22T17:15:52;12.38;;;11.27;;
15528;SDS011;7866;52.280;9.500;2023-06-22T17:20:57;13.43;;;10.55;;
15528;SDS011;7866;52.280;9.500;2023-06-22T17:26:00;11.82;;;10.73;;
15528;SDS011;7866;52.280;9.500;2023-06-22T17:31:08;12.13;;;11.05;;
15528;SDS011;7866;52.280;9.500;2023-06-22T17:36:10;12.50;;;11.18;;
15528;SDS011;7866;52.280;9.500;2023-06-22T17:41:15;11.75;;;10.75;;
15528;SDS011;7866;52.280;9.500;2023-06-22T17:46:16;11.15;;;10.10;;
15528;SDS011;7866;52.280;9.500;2023-06-22T17:51:18;12.02;;;10.85;;
15528;SDS011;7866;52.280;9.500;2023-06-22T17:56:21;11.68;;;10.48;;
15528;SDS011;7866;52.280;9.500;2023-06-22T18:01:33;11.82;;;10.80;;
15528;SDS011;7866;52.280;9.500;2023-06-22T18:06:36;11.93;;;10.75;;
15528;SDS011;7866;52.280;9.500;2023-06-22T18:11:42;11.13;;;10.02;;
15528;SDS011;7866;52.280;9.500;2023-06-22T18:16:46;11.32;;;10.32;;
15528;SDS011;7866;52.280;9.500;2023-06-22T18:21:49;11.73;;;10.63;;
15528;SDS011;7866;52.280;9.500;2023-06-22T18:26:52;12.55;;;10.55;;
15528;SDS011;7866;52.280;9.500;2023-06-22T18:31:55;12.00;;;10.90;;
15528;SDS011;7866;52.280;9.500;2023-06-22T18:36:57;11.50;;;10.50;;
15528;SDS011;7866;52.280;9.500;2023-06-22T18:42:03;11.48;;;10.30;;
15528;SDS011;7866;52.280;9.500;2023-06-22T18:47:05;11.05;;;9.98;;
15528;SDS011;7866;52.280;9.500;2023-06-22T18:52:12;13.60;;;11.45;;
15528;SDS011;7866;52.280;9.500;2023-06-22T18:57:21;11.45;;;10.32;;
15528;SDS011;7866;52.280;9.500;2023-06-22T19:02:34;11.30;;;10.30;;
15528;SDS011;7866;52.280;9.500;2023-06-22T19:07:56;13.45;;;11.43;;
15528;SDS011;7866;52.280;9.500;2023-06-22T19:18:22;11.95;;;10.95;;
15528;SDS011;7866;52.280;9.500;2023-06-22T19:23:28;12.55;;;11.45;;
15528;SDS011;7866;52.280;9.500;2023-06-22T19:28:32;12.65;;;11.45;;
15528;SDS011;7866;52.280;9.500;2023-06-22T19:33:35;13.18;;;11.93;;
15528;SDS011;7866;52.280;9.500;2023-06-22T19:38:38;12.55;;;11.35;;
15528;SDS011;7866;52.280;9.500;2023-06-22T19:43:42;12.70;;;11.65;;
15528;SDS011;7866;52.280;9.500;2023-06-22T19:48:44;13.80;;;12.45;;
15528;SDS011;7866;52.280;9.500;2023-06-22T19:53:47;13.73;;;12.32;;
15528;SDS011;7866;52.280;9.500;2023-06-22T19:58:50;13.32;;;12.13;;
15528;SDS011;7866;52.280;9.500;2023-06-22T20:03:54;12.93;;;11.73;;
15528;SDS011;7866;52.280;9.500;2023-06-22T20:08:56;13.60;;;12.30;;
15528;SDS011;7866;52.280;9.500;2023-06-22T20:14:01;11.55;;;10.52;;
15528;SDS011;7866;52.280;9.500;2023-06-22T20:19:06;13.13;;;11.88;;
15528;SDS011;7866;52.280;9.500;2023-06-22T20:24:09;13.20;;;11.82;;
15528;SDS011;7866;52.280;9.500;2023-06-22T20:34:35;11.90;;;10.80;;
15528;SDS011;7866;52.280;9.500;2023-06-22T20:39:38;11.98;;;10.93;;
15528;SDS011;7866;52.280;9.500;2023-06-22T20:44:41;12.50;;;11.32;;
15528;SDS011;7866;52.280;9.500;2023-06-22T20:49:49;11.00;;;10.07;;
15528;SDS011;7866;52.280;9.500;2023-06-22T20:54:51;11.93;;;10.82;;
15528;SDS011;7866;52.280;9.500;2023-06-22T20:59:54;12.05;;;10.85;;
15528;SDS011;7866;52.280;9.500;2023-06-22T21:04:56;12.32;;;11.13;;
15528;SDS011;7866;52.280;9.500;2023-06-22T21:09:58;11.75;;;9.63;;
15528;SDS011;7866;52.280;9.500;2023-06-22T21:15:01;11.57;;;10.57;;
15528;SDS011;7866;52.280;9.500;2023-06-22T21:20:05;11.85;;;10.68;;
15528;SDS011;7866;52.280;9.500;2023-06-22T21:25:08;11.75;;;10.55;;
15528;SDS011;7866;52.280;9.500;2023-06-22T21:30:12;10.77;;;9.50;;
15528;SDS011;7866;52.280;9.500;2023-06-22T21:35:15;10.30;;;9.50;;
15528;SDS011;7866;52.280;9.500;2023-06-22T21:40:17;10.30;;;9.40;;
15528;SDS011;7866;52.280;9.500;2023-06-22T21:45:20;11.00;;;9.90;;
15528;SDS011;7866;52.280;9.500;2023-06-22T21:50:22;10.35;;;9.45;;
15528;SDS011;7866;52.280;9.500;2023-06-22T21:55:23;9.88;;;8.68;;
15528;SDS011;7866;52.280;9.500;2023-06-22T22:00:26;8.07;;;7.38;;
15528;SDS011;7866;52.280;9.500;2023-06-22T22:05:28;8.43;;;7.55;;
15528;SDS011;7866;52.280;9.500;2023-06-22T22:10:31;8.10;;;7.30;;
15528;SDS011;7866;52.280;9.500;2023-06-22T22:15:37;8.32;;;7.22;;
15528;SDS011;7866;52.280;9.500;2023-06-22T22:20:39;9.73;;;7.68;;
15528;SDS011;7866;52.280;9.500;2023-06-22T22:25:41;8.73;;;7.25;;
15528;SDS011;7866;52.280;9.500;2023-06-22T22:30:44;9.70;;;7.00;;
15528;SDS011;7866;52.280;9.500;2023-06-22T22:35:46;7.22;;;6.57;;
15528;SDS011;7866;52.280;9.500;2023-06-22T22:40:47;8.23;;;6.05;;
15528;SDS011;7866;52.280;9.500;2023-06-22T22:45:50;6.78;;;5.18;;
15528;SDS011;7866;52.280;9.500;2023-06-22T22:50:52;6.30;;;5.07;;
15528;SDS011;7866;52.280;9.500;2023-06-22T22:55:54;6.30;;;5.68;;
15528;SDS011;7866;52.280;9.500;2023-06-22T23:00:58;7.20;;;5.68;;
15528;SDS011;7866;52.280;9.500;2023-06-22T23:06:02;7.30;;;5.85;;
15528;SDS011;7866;52.280;9.500;2023-06-22T23:11:03;8.25;;;5.07;;
15528;SDS011;7866;52.280;9.500;2023-06-22T23:16:06;7.60;;;5.13;;
15528;SDS011;7866;52.280;9.500;2023-06-22T23:21:08;6.10;;;4.47;;
15528;SDS011;7866;52.280;9.500;2023-06-22T23:26:10;6.70;;;5.25;;
15528;SDS011;7866;52.280;9.500;2023-06-22T23:31:13;7.47;;;4.93;;
15528;SDS011;7866;52.280;9.500;2023-06-22T23:36:14;7.13;;;5.90;;
15528;SDS011;7866;52.280;9.500;2023-06-22T23:41:16;7.53;;;5.15;;
15528;SDS011;7866;52.280;9.500;2023-06-22T23:46:19;5.95;;;4.80;;
15528;SDS011;7866;52.280;9.500;2023-06-22T23:51:21;6.30;;;4.60;;
15528;SDS011;7866;52.280;9.500;2023-06-22T23:56:24;5.55;;;4.80;;
